ADDS METAR Data INFO
IDs: Format: Raw Decoded Include TAF

Data at: 2324 UTC 19 Oct 2017

KGLS 192252Z 07013KT 10SM CLR 26/18 A3009 RMK AO2 SLP188 T02560183
KGLS 192152Z 05010KT 10SM CLR 27/16 A3009 RMK AO2 SLP188 T02720161
KGLS 192052Z 06014KT 10SM CLR 26/17 A3009 RMK AO2 SLP187 T02610172 56016
KGLS 191952Z 07014KT 10SM FEW040 26/18 A3009 RMK AO2 SLP190 T02610183
KGLS 191852Z 08016KT 10SM SCT040 28/19 A3011 RMK AO2 SLP195 T02780189
KGLS 191752Z 07014G19KT 10SM FEW050 28/19 A3013 RMK AO2 SLP203 T02830194 10289 20250 58002
KGLS 191652Z 07011KT 10SM FEW040 29/20 A3015 RMK AO2 SLP208 T02890200
KGLS 191552Z 07011KT 10SM SCT033 28/20 A3014 RMK AO2 SLP206 T02830200
KGLS 191452Z 08010KT 10SM SCT032 27/19 A3014 RMK AO2 SLP205 T02720194 53013
KGLS 191352Z 12008KT 10SM SCT039 27/18 A3012 RMK AO2 SLP200 T02670178
KGLS 191252Z 08006KT 10SM SCT040 25/17 A3011 RMK AO2 SLP195 T02500172
KGLS 191152Z 11009KT 10SM BKN040 25/18 A3010 RMK AO2 SLP193 T02500183 10256 20250 53005
KGLS 191052Z 12010KT 10SM FEW044 26/18 A3010 RMK AO2 SLP191 T02560183
KGLS 190952Z AUTO 12007KT 10SM BKN042 26/18 A3009 RMK AO2 SLP189 T02560178
KGLS 190852Z AUTO 12009KT 10SM BKN039 26/18 A3009 RMK AO2 SLP188 T02560178 58004
KGLS 190752Z AUTO 13012KT 10SM OVC036 26/18 A3009 RMK AO2 SLP190 T02560183
KGLS 190652Z AUTO 13012KT 10SM BKN035 26/18 A3010 RMK AO2 SLP192 T02560178
KGLS 190552Z AUTO 11010KT 10SM FEW034 25/19 A3010 RMK AO2 SLP192 T02500189 10250 20233 402830189 58012
KGLS 190452Z AUTO 11010KT 10SM SCT033 24/18 A3012 RMK AO2 SLP200 T02440178
KGLS 190352Z AUTO 09010KT 10SM CLR 24/18 A3014 RMK AO2 SLP204 T02390178
KGLS 190252Z AUTO 08007KT 10SM SCT032 24/18 A3014 RMK AO2 SLP205 T02390178 51010
KGLS 190152Z AUTO 08006KT 10SM FEW025 BKN033 24/19 A3013 RMK AO2 SLP202 T02440194
KGLS 190052Z AUTO 08006KT 10SM CLR 24/18 A3012 RMK AO2 SLP200 T02390183
KGLS 182352Z AUTO 08006KT 10SM FEW027 24/18 A3011 RMK AO2 SLP195 T02440183 10278 20244 55004
KGLS 182252Z 07006KT 10SM SCT029 26/19 A3010 RMK AO2 SLP193 T02560189
KGLS 182152Z VRB06KT 10SM SCT040 27/17 A3011 RMK AO2 SLP194 T02670172
KGLS 182052Z 11008KT 10SM FEW040 27/17 A3012 RMK AO2 SLP199 T02670172 56013
KGLS 181952Z 11007KT 10SM SCT035 27/17 A3013 RMK AO2 SLP201 T02670167
KGLS 181852Z 11005KT 10SM FU SCT035 27/17 A3014 RMK AO2 SLP206 T02720172
KGLS 181752Z 10SM FU SCT034 27/18 A3016 RMK AO2 SLP212 T02720178 10283 20189 58006
KGLS 181703Z 03005KT 3SM HZ FU BKN032 28/19 A3017 RMK AO2 T02780189
KGLS 181652Z 35007KT 2 1/2SM HZ FU SCT032 27/19 A3017 RMK AO2 SLP217 T02720189
KGLS 181618Z 36008KT 1SM HZ FU FEW023 26/19 A3018 RMK AO2 T02560194
KGLS 181552Z 35009KT 3/4SM HZ VV017 25/19 A3018 RMK AO2 SLP219 T02500194
KGLS 181538Z 35007KT 3/4SM HZ VV019 25/19 A3018 RMK AO2 T02500189
KGLS 181519Z 01006KT 3/4SM HZ CLR 24/19 A3018 RMK AO2 T02440189
KGLS 181452Z 01007KT 1SM HZ CLR 24/19 A3018 RMK AO2 SLP218 T02390189 53012
KGLS 181352Z 01007KT 1 1/4SM HZ CLR 22/17 A3016 RMK AO2 SLP213 T02170172
KGLS 181322Z 36007KT 2SM HZ FU CLR 21/17 A3015 RMK AO2 T02060172
KGLS 181308Z 01006KT 3SM HZ FU CLR 20/17 A3014 RMK AO2 T02000167
KGLS 181257Z 01004KT 1 3/4SM FU CLR 19/17 A3014 RMK AO2 T01940167
KGLS 181252Z 36004KT 3SM FU CLR 19/17 A3014 RMK AO2 SLP206 T01940167
KGLS 181152Z 02007KT 8SM CLR 19/15 A3014 RMK AO2 SLP206 T01890150 10200 20189 53003